ilmateenistus.ee keskkonnaagentuur.ee
EETN Tallinna lennuväli
FTEO31 EETN 202300 RRA
TAF EETN 202342Z 2100/2124 33015G25KT 9999 SCT015 TEMPO 2100/2103
    34018G30KT 5000 SHRA BKN008 SCT015CB TEMPO 2106/2117 34020G32KT
    SCT012 SCT020CB=

METAR EETN 210020Z 31011KT 290V350 9999 BKN015 14/12 Q1003 =
Tallinna lennuväli
EEKA Kärdla lennuväli
METAR EEKA 202350Z NIL=
Kärdla lennuväli
EEKE Kuressaare lennuväli
METAR EEKE 202350Z AUTO 29005KT 260V340 9999NDV NSC 14/12 Q1007=
Kuressaare lennuväli
EEPU Pärnu lennuväli
METAR EEPU 202350Z NIL=
Pärnu lennuväli
EETU Tartu lennuväli
FCEO32 EETN 202000 AAA
TAF AMD EETU 210000Z 2021/2103 CNL=

METAR EETU 202350Z NIL=
Tartu lennuväli
Ämari lennuväli